バンダルスリブガワン の空港の天気 - METARとTAF

ブルネイ国際空港 ( WBSB / BWN ) - ブルネイ バンダルスリブガワン
飛行場実況気象(Metar)
観測時間05/31 11:00 BNT (05/31 03:00 UTC)
風向・風速北東 4m/s
視程10km以上
天気現象
少しの雲 雲底高度 460m
少しの雲 雲底高度 490m
全天の8割程度の雲 雲底高度 9140m
気温33℃
湿度67%
気圧1012hPa
METARWBSB 310300Z 05008KT 9999 FEW015 FEW016CB BKN300 33/26 Q1012 NOSIG
過去の天気等 Google飛行場航空写真 Wunderground天気予報

過去48時間のMETAR

飛行場予報(TAF)
発表時間: 5/31 07:00 BNT (5/30 23:00 UTC)
予報対象時間: 31日8時 BNT ~ 1日14時 BNT
風向・風速南南西 2m/s
視程10km以上
少しの雲 雲底高度 460m
31日11時 BNT ~ 31日13時 BNT に徐々に
風向・風速北北西 4m/s
少しの雲 雲底高度 520m
少しの積乱雲 雲底高度 550m
TAF WBSB 302300Z 3100/0106 20004KT 9999 FEW015
BECMG 3103/3105 34008KT FEW017 FEW018CB